createdAt,value
2018-07-16T00:01:00.801Z,78.40
2018-07-16T00:03:30.841Z,78.60
2018-07-16T00:06:00.902Z,80.90
2018-07-16T00:08:30.968Z,82.10
2018-07-16T00:11:01.030Z,83.70
2018-07-16T00:16:00.716Z,85.40
2018-07-16T00:18:30.733Z,87.10
2018-07-16T00:21:00.855Z,87.80
2018-07-16T00:23:30.861Z,88.90
2018-07-16T00:26:00.960Z,90.20
2018-07-16T00:31:00.719Z,92.00
2018-07-16T00:33:30.752Z,93.20
2018-07-16T00:36:00.807Z,93.50
2018-07-16T00:38:30.874Z,94.00
2018-07-16T00:41:00.935Z,94.40
2018-07-16T00:43:30.990Z,94.60
2018-07-16T00:51:00.309Z,95.80
2018-07-16T00:53:30.403Z,96.10
2018-07-16T00:56:00.445Z,96.10
2018-07-16T00:58:30.537Z,96.50
2018-07-16T01:01:00.589Z,96.60
2018-07-16T01:03:31.337Z,97.50
2018-07-16T01:06:01.413Z,97.40
2018-07-16T01:08:31.494Z,97.10
2018-07-16T01:11:01.518Z,97.20
2018-07-16T01:13:31.661Z,97.00
2018-07-16T01:18:31.704Z,95.40
2018-07-16T01:21:01.853Z,94.10
2018-07-16T01:23:31.939Z,94.90
2018-07-16T01:31:02.196Z,96.40
2018-07-16T01:33:32.347Z,96.50
2018-07-16T01:36:02.449Z,96.70
2018-07-16T01:38:32.639Z,96.30
2018-07-16T01:41:02.744Z,96.20
2018-07-16T01:43:32.815Z,96.50
2018-07-16T01:46:02.941Z,96.60
2018-07-16T01:48:33.050Z,96.40
2018-07-16T01:51:03.124Z,96.50
2018-07-16T01:53:33.212Z,96.30
2018-07-16T01:56:03.260Z,95.40
2018-07-16T01:58:33.335Z,95.40
2018-07-16T02:01:04.219Z,95.00
2018-07-16T02:03:34.971Z,95.40
2018-07-16T02:06:05.018Z,95.50
2018-07-16T02:08:35.152Z,96.00
2018-07-16T02:11:05.410Z,95.60
2018-07-16T02:16:05.164Z,96.10
2018-07-16T02:18:35.263Z,96.30
2018-07-16T02:21:05.368Z,96.30
2018-07-16T02:23:35.545Z,96.60
2018-07-16T02:26:05.646Z,96.50
2018-07-16T02:31:05.339Z,97.20
2018-07-16T02:33:35.408Z,97.10
2018-07-16T02:36:05.500Z,97.00
2018-07-16T02:38:35.629Z,97.40
2018-07-16T02:41:05.763Z,97.50
2018-07-16T02:46:05.732Z,97.50
2018-07-16T02:48:35.818Z,97.30
2018-07-16T02:51:05.867Z,97.30
2018-07-16T02:53:35.919Z,97.80
2018-07-16T02:56:06.017Z,97.50
2018-07-16T02:58:36.093Z,97.90
2018-07-16T03:01:06.209Z,98.30
2018-07-16T03:03:36.352Z,98.10
2018-07-16T03:06:06.431Z,98.60
2018-07-16T03:08:36.486Z,98.90
2018-07-16T03:11:06.543Z,99.10
2018-07-16T03:13:36.643Z,99.20
2018-07-16T03:18:36.442Z,99.90
2018-07-16T03:21:06.521Z,99.70
2018-07-16T03:23:36.592Z,99.40
2018-07-16T03:26:06.606Z,99.30
2018-07-16T03:28:36.696Z,99.80
2018-07-16T03:31:06.872Z,99.70
2018-07-16T03:33:36.935Z,99.50
2018-07-16T03:38:36.823Z,99.90
2018-07-16T03:41:07.175Z,99.90
2018-07-16T03:43:37.601Z,99.90
2018-07-16T03:48:38.363Z,99.90
2018-07-16T03:51:08.691Z,99.90
2018-07-16T03:53:38.803Z,99.90
2018-07-16T03:56:08.841Z,99.90
2018-07-16T04:01:09.021Z,99.90
2018-07-16T04:03:39.058Z,99.90
2018-07-16T04:06:09.100Z,99.90
2018-07-16T04:08:39.123Z,99.90
2018-07-16T04:11:09.197Z,99.90
2018-07-16T04:13:39.252Z,99.90
2018-07-16T04:16:09.744Z,99.90
2018-07-16T04:18:39.839Z,99.90
2018-07-16T04:21:09.968Z,99.90
2018-07-16T04:23:40.085Z,99.90
2018-07-16T04:26:10.161Z,99.90
2018-07-16T04:28:40.185Z,99.90
2018-07-16T04:31:10.335Z,99.90
2018-07-16T04:33:40.521Z,99.90
2018-07-16T04:36:10.684Z,99.90
2018-07-16T04:38:40.817Z,99.90
2018-07-16T04:41:11.279Z,99.90
2018-07-16T04:46:11.159Z,99.90
2018-07-16T04:48:41.281Z,99.90
2018-07-16T04:51:11.399Z,99.90
2018-07-16T04:53:41.562Z,99.90
2018-07-16T04:56:11.680Z,99.90
2018-07-16T04:58:41.777Z,99.90
2018-07-16T05:01:11.980Z,99.90
2018-07-16T05:03:42.095Z,99.90
2018-07-16T05:06:12.227Z,99.90
2018-07-16T05:08:42.295Z,99.90
2018-07-16T05:11:12.413Z,99.90
2018-07-16T05:13:42.543Z,99.90
2018-07-16T05:16:12.679Z,99.90
2018-07-16T05:21:12.540Z,99.90
2018-07-16T05:23:42.616Z,99.90
2018-07-16T05:26:12.750Z,99.90
2018-07-16T05:28:42.837Z,99.90
2018-07-16T05:31:13.037Z,99.90
2018-07-16T05:33:43.174Z,99.90
2018-07-16T05:36:13.332Z,99.90
2018-07-16T05:38:43.443Z,99.90
2018-07-16T05:41:13.583Z,99.90
2018-07-16T05:43:43.670Z,97.20
2018-07-16T05:46:13.795Z,96.70
2018-07-16T05:48:43.908Z,95.80
2018-07-16T05:51:14.072Z,95.40
2018-07-16T05:53:44.172Z,94.60
2018-07-16T05:56:14.287Z,93.30
2018-07-16T05:58:44.378Z,92.20
2018-07-16T06:01:18.170Z,92.80
2018-07-16T06:03:49.465Z,93.70
2018-07-16T06:06:19.636Z,94.50
2018-07-16T06:08:49.768Z,94.60
2018-07-16T06:11:19.897Z,93.00
2018-07-16T06:13:50.032Z,93.30
2018-07-16T06:16:20.198Z,93.50
2018-07-16T06:18:50.299Z,92.10
2018-07-16T06:21:20.401Z,91.20
2018-07-16T06:26:20.583Z,91.30
2018-07-16T06:28:50.978Z,88.20
2018-07-16T06:31:21.161Z,85.00
2018-07-16T06:33:51.283Z,85.90
2018-07-16T06:36:21.515Z,88.40
2018-07-16T06:38:51.656Z,86.60
2018-07-16T06:41:22.200Z,83.10
2018-07-16T06:43:52.240Z,81.00
2018-07-16T06:46:22.350Z,84.10
2018-07-16T06:48:52.430Z,82.10
2018-07-16T06:51:22.645Z,83.20
2018-07-16T06:53:52.728Z,86.50
2018-07-16T06:56:22.807Z,87.20
2018-07-16T06:58:53.152Z,90.00
2018-07-16T07:01:23.345Z,79.70
2018-07-16T07:03:53.519Z,88.70
2018-07-16T07:06:23.766Z,87.30
2018-07-16T07:08:53.911Z,83.30
2018-07-16T07:11:23.963Z,83.00
2018-07-16T07:13:54.112Z,81.20
2018-07-16T07:16:24.210Z,78.70
2018-07-16T07:18:54.284Z,82.10
2018-07-16T07:21:24.471Z,82.70
2018-07-16T07:23:54.546Z,79.50
2018-07-16T07:26:24.726Z,81.00
2018-07-16T07:28:54.794Z,82.20
2018-07-16T07:31:24.832Z,80.80
2018-07-16T07:33:54.924Z,81.60
2018-07-16T07:36:25.005Z,82.80
2018-07-16T07:38:55.090Z,80.70
2018-07-16T07:41:25.177Z,81.50
2018-07-16T07:43:55.316Z,80.20
2018-07-16T07:46:25.376Z,78.80
2018-07-16T07:48:55.431Z,78.20
2018-07-16T07:51:25.512Z,79.70
2018-07-16T07:53:55.570Z,77.90
2018-07-16T07:58:55.397Z,76.30
2018-07-16T08:03:55.117Z,78.00
2018-07-16T08:06:25.215Z,75.90
2018-07-16T08:08:55.349Z,78.50
2018-07-16T08:11:25.483Z,77.60
2018-07-16T08:13:55.687Z,76.60
2018-07-16T08:16:25.672Z,75.30
2018-07-16T08:18:55.729Z,77.80
2018-07-16T08:21:25.831Z,75.10
2018-07-16T08:23:55.975Z,76.20
2018-07-16T08:26:26.065Z,75.40
2018-07-16T08:28:56.130Z,74.00
2018-07-16T08:31:26.242Z,74.00
2018-07-16T08:33:56.340Z,74.70
2018-07-16T08:36:26.469Z,72.70
2018-07-16T08:38:56.550Z,71.20
2018-07-16T08:41:26.640Z,73.80
2018-07-16T08:43:56.799Z,76.40
2018-07-16T08:48:56.543Z,71.70
2018-07-16T08:56:26.020Z,71.80
2018-07-16T08:58:56.117Z,72.00
2018-07-16T09:03:55.860Z,71.50
2018-07-16T09:06:25.904Z,73.40
2018-07-16T09:08:55.954Z,70.10
2018-07-16T09:11:26.036Z,70.00
2018-07-16T09:13:56.103Z,77.70
2018-07-16T09:16:26.182Z,71.90
2018-07-16T09:18:56.263Z,71.40
2018-07-16T09:21:26.405Z,64.30
2018-07-16T09:23:56.564Z,66.30
2018-07-16T09:26:26.627Z,67.40
2018-07-16T09:28:56.800Z,70.70
2018-07-16T09:31:26.851Z,67.40
2018-07-16T09:33:56.927Z,67.30
2018-07-16T09:38:56.699Z,68.20
2018-07-16T09:41:26.796Z,68.70
2018-07-16T09:43:56.866Z,67.30
2018-07-16T09:46:26.922Z,72.40
2018-07-16T09:48:57.023Z,64.70
2018-07-16T09:51:27.077Z,65.10
2018-07-16T09:56:26.855Z,69.80
2018-07-16T09:58:56.933Z,63.30
2018-07-16T10:01:32.092Z,59.60
2018-07-16T10:04:02.165Z,62.10
2018-07-16T10:06:32.224Z,66.80
2018-07-16T10:09:02.292Z,63.30
2018-07-16T10:11:32.367Z,57.10
2018-07-16T10:14:02.532Z,59.00
2018-07-16T10:16:33.055Z,58.50
2018-07-16T10:19:03.564Z,60.30
2018-07-16T10:21:33.619Z,61.90
2018-07-16T10:24:03.710Z,56.50
2018-07-16T10:26:33.786Z,56.60
2018-07-16T10:31:33.549Z,55.50
2018-07-16T10:34:03.656Z,56.30
2018-07-16T10:39:03.519Z,54.10
2018-07-16T10:41:33.583Z,61.70
2018-07-16T10:44:03.672Z,56.00
2018-07-16T10:46:33.725Z,52.60
2018-07-16T10:49:03.808Z,51.30
2018-07-16T10:51:33.884Z,53.20
2018-07-16T10:54:04.016Z,54.30
2018-07-16T10:56:34.119Z,57.00
2018-07-16T10:59:04.216Z,54.10
2018-07-16T11:01:34.297Z,51.30
2018-07-16T11:04:04.457Z,53.30
2018-07-16T11:06:34.532Z,51.50
2018-07-16T11:09:05.439Z,50.00
2018-07-16T11:11:35.588Z,50.30
2018-07-16T11:14:05.625Z,57.10
2018-07-16T11:16:35.720Z,50.70
2018-07-16T11:19:05.807Z,52.40
2018-07-16T11:21:35.862Z,54.90
2018-07-16T11:24:05.964Z,52.70
2018-07-16T11:26:36.025Z,50.50
2018-07-16T11:29:06.070Z,55.60
2018-07-16T11:31:36.220Z,52.80
2018-07-16T11:34:06.265Z,50.90
2018-07-16T11:36:36.459Z,52.60
2018-07-16T11:39:08.612Z,52.40
2018-07-16T11:41:38.796Z,53.50
2018-07-16T11:44:09.487Z,51.30
2018-07-16T11:46:39.661Z,51.50
2018-07-16T11:49:10.107Z,54.40
2018-07-16T11:51:40.192Z,53.50
2018-07-16T11:54:10.338Z,52.90
2018-07-16T11:56:40.436Z,50.20
2018-07-16T11:59:10.560Z,50.30
2018-07-16T12:01:40.667Z,52.00
2018-07-16T12:04:11.053Z,51.10
2018-07-16T12:09:10.841Z,48.30
2018-07-16T12:11:40.972Z,55.20
2018-07-16T12:14:10.987Z,51.10
2018-07-16T12:16:41.151Z,52.80
2018-07-16T12:19:11.308Z,52.50
2018-07-16T12:21:41.495Z,49.30
2018-07-16T12:24:11.584Z,54.60
2018-07-16T12:26:41.705Z,51.70
2018-07-16T12:29:11.756Z,51.00
2018-07-16T12:31:41.925Z,48.80
2018-07-16T12:34:11.996Z,52.80
2018-07-16T12:36:42.096Z,46.50
2018-07-16T12:39:12.308Z,50.30
2018-07-16T12:41:42.366Z,45.30
2018-07-16T12:44:12.471Z,44.00
2018-07-16T12:46:42.581Z,48.50
2018-07-16T12:49:12.603Z,49.10
2018-07-16T12:51:42.752Z,47.00
2018-07-16T12:54:12.788Z,45.90
2018-07-16T12:56:42.872Z,47.20
2018-07-16T12:59:13.080Z,45.80
2018-07-16T13:01:43.188Z,45.10
2018-07-16T13:04:14.296Z,45.10
2018-07-16T13:06:44.547Z,48.60
2018-07-16T13:11:44.363Z,47.00
2018-07-16T13:14:14.432Z,45.50
2018-07-16T13:16:44.548Z,45.40
2018-07-16T13:19:14.700Z,46.10
2018-07-16T13:21:44.930Z,44.30
2018-07-16T13:24:15.021Z,44.80
2018-07-16T13:26:45.173Z,46.30
2018-07-16T13:29:15.365Z,43.80
2018-07-16T13:34:15.384Z,44.90
2018-07-16T13:36:45.659Z,44.30
2018-07-16T13:39:15.885Z,45.00
2018-07-16T13:41:46.020Z,45.30
2018-07-16T13:44:16.156Z,45.90
2018-07-16T13:46:46.353Z,44.80
2018-07-16T13:49:16.501Z,44.60
2018-07-16T13:51:46.725Z,46.20
2018-07-16T13:54:16.772Z,45.00
2018-07-16T13:56:46.934Z,41.70
2018-07-16T13:59:16.980Z,42.60
2018-07-16T14:01:47.245Z,43.60
2018-07-16T14:04:17.327Z,43.10
2018-07-16T14:06:47.501Z,44.40
2018-07-16T14:09:17.613Z,46.00
2018-07-16T14:11:47.856Z,43.50
2018-07-16T14:14:18.004Z,43.50
2018-07-16T14:16:48.299Z,44.50
2018-07-16T14:19:18.415Z,44.10
2018-07-16T14:21:48.540Z,42.10
2018-07-16T14:24:18.796Z,44.10
2018-07-16T14:26:49.050Z,43.20
2018-07-16T14:29:19.283Z,45.40
2018-07-16T14:31:49.504Z,46.40
2018-07-16T14:34:19.735Z,43.20
2018-07-16T14:36:49.947Z,44.90
2018-07-16T14:39:21.536Z,45.40
2018-07-16T14:41:51.656Z,45.50
2018-07-16T14:44:21.899Z,43.70
2018-07-16T14:46:52.060Z,43.80
2018-07-16T14:49:22.143Z,47.60
2018-07-16T14:51:52.353Z,43.40
2018-07-16T14:54:22.605Z,43.20
2018-07-16T14:56:52.673Z,43.20
2018-07-16T14:59:22.830Z,41.50
2018-07-16T15:01:52.917Z,44.30
2018-07-16T15:04:23.147Z,44.90
2018-07-16T15:06:53.193Z,43.10
2018-07-16T15:09:23.286Z,44.90
2018-07-16T15:11:53.424Z,43.20
2018-07-16T15:14:23.523Z,41.90
2018-07-16T15:16:53.603Z,44.70
2018-07-16T15:19:23.744Z,42.80
2018-07-16T15:24:23.667Z,44.30
2018-07-16T15:26:53.856Z,44.10
2018-07-16T15:29:24.062Z,43.50
2018-07-16T15:31:54.104Z,42.80
2018-07-16T15:34:24.285Z,42.00
2018-07-16T15:36:54.366Z,43.80
2018-07-16T15:39:24.402Z,42.90
2018-07-16T15:41:54.560Z,42.10
2018-07-16T15:44:24.667Z,43.20
2018-07-16T15:46:54.720Z,44.40
2018-07-16T15:49:26.384Z,43.60
2018-07-16T15:51:56.522Z,44.00
2018-07-16T15:54:26.649Z,45.10
2018-07-16T15:56:56.817Z,45.10
2018-07-16T15:59:27.561Z,43.60
2018-07-16T16:01:57.658Z,42.60
2018-07-16T16:04:27.839Z,43.20
2018-07-16T16:06:57.955Z,42.90
2018-07-16T16:09:28.381Z,42.30
2018-07-16T16:11:58.668Z,43.30
2018-07-16T16:16:58.520Z,43.50
2018-07-16T16:19:28.713Z,42.90
2018-07-16T16:21:58.792Z,42.90
2018-07-16T16:24:29.404Z,44.10
2018-07-16T16:26:59.550Z,43.20
2018-07-16T16:29:29.658Z,43.60
2018-07-16T16:34:29.436Z,43.10
2018-07-16T16:36:59.528Z,43.00
2018-07-16T16:39:29.754Z,41.90
2018-07-16T16:41:59.889Z,41.90
2018-07-16T16:44:30.014Z,41.10
2018-07-16T16:47:00.135Z,42.90
2018-07-16T16:49:30.301Z,42.70
2018-07-16T16:52:00.513Z,42.90
2018-07-16T16:54:30.577Z,42.00
2018-07-16T16:59:30.407Z,42.10
2018-07-16T17:02:00.831Z,42.60
2018-07-16T17:07:00.742Z,43.70
2018-07-16T17:09:30.885Z,43.50
2018-07-16T17:12:01.020Z,42.70
2018-07-16T17:14:31.119Z,41.50
2018-07-16T17:17:01.155Z,42.30
2018-07-16T17:19:31.215Z,42.00
2018-07-16T17:22:01.260Z,42.80
2018-07-16T17:24:31.366Z,42.70
2018-07-16T17:27:01.413Z,42.20
2018-07-16T17:29:31.534Z,42.90
2018-07-16T17:32:01.608Z,42.90
2018-07-16T17:37:01.701Z,43.40
2018-07-16T17:39:31.868Z,44.20
2018-07-16T17:44:31.733Z,44.40
2018-07-16T17:47:01.769Z,44.70
2018-07-16T17:49:31.897Z,44.60
2018-07-16T17:52:01.941Z,45.30
2018-07-16T17:54:32.013Z,45.20
2018-07-16T17:57:02.057Z,45.30
2018-07-16T17:59:32.129Z,45.50
2018-07-16T18:02:02.161Z,46.20
2018-07-16T18:07:02.023Z,45.00
2018-07-16T18:09:32.036Z,45.80
2018-07-16T18:12:02.085Z,46.10
2018-07-16T18:14:32.141Z,45.50
2018-07-16T18:17:02.235Z,46.40
2018-07-16T18:19:32.255Z,47.50
2018-07-16T18:22:02.389Z,47.10
2018-07-16T18:24:32.474Z,46.70
2018-07-16T18:27:02.803Z,46.90
2018-07-16T18:29:33.020Z,47.20
2018-07-16T18:32:03.164Z,47.80
2018-07-16T18:34:33.223Z,47.40
2018-07-16T18:37:03.383Z,48.00
2018-07-16T18:39:33.812Z,48.50
2018-07-16T19:08:15.466Z,56.00
2018-07-16T19:10:45.642Z,56.50
2018-07-16T19:13:15.548Z,56.60
2018-07-16T19:15:45.543Z,56.60
2018-07-16T19:18:15.495Z,57.10
2018-07-16T19:20:48.595Z,57.80
2018-07-16T19:23:18.623Z,57.60
2018-07-16T19:25:49.409Z,58.00
2018-07-16T19:28:19.350Z,57.70
2018-07-16T19:30:49.325Z,58.50
2018-07-16T19:33:19.252Z,58.90
2018-07-16T19:35:49.248Z,59.30
2018-07-16T19:38:19.249Z,59.70
2018-07-16T19:40:49.208Z,60.00
2018-07-16T19:43:19.233Z,60.40
2018-07-16T19:45:49.177Z,61.50
2018-07-16T19:48:19.185Z,62.00
2018-07-16T19:50:49.872Z,61.30
2018-07-16T19:53:19.938Z,61.30
2018-07-16T19:55:51.478Z,61.40
2018-07-16T19:58:21.487Z,62.20
2018-07-16T20:00:51.529Z,63.30
2018-07-16T20:03:21.639Z,63.20
2018-07-16T20:05:51.637Z,64.00
2018-07-16T20:08:22.621Z,63.70
2018-07-16T20:10:52.504Z,64.50
2018-07-16T20:13:22.483Z,64.60
2018-07-16T20:15:52.418Z,64.40
2018-07-16T20:18:22.396Z,64.70
2018-07-16T20:20:56.543Z,65.90
2018-07-16T20:23:26.501Z,65.70
2018-07-16T20:25:58.760Z,65.50
2018-07-16T20:28:28.722Z,66.60
2018-07-16T20:30:58.700Z,66.90
2018-07-16T20:33:28.913Z,66.70
2018-07-16T20:35:58.889Z,65.90
2018-07-16T20:38:28.864Z,65.70
2018-07-16T20:40:58.790Z,65.70
2018-07-16T20:43:29.144Z,66.00
2018-07-16T20:48:28.645Z,66.90
2018-07-16T20:50:58.681Z,67.40
2018-07-16T20:53:28.673Z,67.80
2018-07-16T20:55:58.573Z,67.80
2018-07-16T20:58:28.551Z,67.80
2018-07-16T21:00:58.485Z,68.00
2018-07-16T21:05:57.944Z,69.00
2018-07-16T21:08:27.941Z,69.00
2018-07-16T21:10:57.882Z,69.60
2018-07-16T21:13:27.864Z,69.80
2018-07-16T21:15:57.784Z,70.00
2018-07-16T21:18:27.748Z,70.30
2018-07-16T21:20:57.652Z,70.90
2018-07-16T21:23:27.707Z,71.50
2018-07-16T21:25:57.650Z,71.70
2018-07-16T21:28:27.652Z,71.70
2018-07-16T21:30:57.570Z,72.40
2018-07-16T21:33:27.569Z,72.90
2018-07-16T21:35:57.547Z,73.60
2018-07-16T21:40:57.041Z,74.00
2018-07-16T21:43:27.030Z,74.40
2018-07-16T21:45:56.947Z,75.10
2018-07-16T21:48:26.901Z,76.00
2018-07-16T21:50:56.816Z,75.20
2018-07-16T21:53:26.816Z,75.30
2018-07-16T21:55:57.144Z,75.20
2018-07-16T21:58:27.100Z,75.50
2018-07-16T22:00:57.068Z,76.10
2018-07-16T22:03:27.052Z,76.60
2018-07-16T22:05:57.023Z,76.70
2018-07-16T22:08:27.843Z,76.80
2018-07-16T22:10:57.771Z,76.90
2018-07-16T22:13:27.720Z,76.90
2018-07-16T22:15:57.672Z,77.30
2018-07-16T22:20:58.068Z,77.90
2018-07-16T22:23:28.073Z,77.70
2018-07-16T22:25:58.014Z,78.10
2018-07-16T22:28:27.968Z,78.20
2018-07-16T22:30:57.895Z,78.70
2018-07-16T22:33:27.861Z,78.70
2018-07-16T22:35:57.880Z,78.80
2018-07-16T22:38:27.800Z,79.20
2018-07-16T22:40:57.763Z,79.50
2018-07-16T22:43:27.740Z,80.00
2018-07-16T22:45:57.660Z,79.30
2018-07-16T22:48:27.600Z,79.60
2018-07-16T22:50:57.556Z,79.40
2018-07-16T22:53:27.492Z,79.20
2018-07-16T22:55:57.439Z,79.10
2018-07-16T22:58:27.437Z,78.70
2018-07-16T23:00:57.437Z,78.70
2018-07-16T23:03:27.344Z,79.00
2018-07-16T23:05:57.342Z,79.00
2018-07-16T23:08:27.284Z,79.40
2018-07-16T23:13:26.837Z,79.70
2018-07-16T23:15:56.801Z,79.80
2018-07-16T23:18:26.706Z,79.40
2018-07-16T23:20:56.661Z,79.80
2018-07-16T23:23:26.620Z,80.20
2018-07-16T23:25:56.620Z,80.40
2018-07-16T23:28:26.540Z,80.20
2018-07-16T23:30:56.483Z,80.20
2018-07-16T23:33:26.401Z,80.00
2018-07-16T23:35:56.389Z,80.10
2018-07-16T23:38:26.297Z,79.90
2018-07-16T23:40:56.300Z,79.90
2018-07-16T23:43:26.232Z,79.90
2018-07-16T23:45:56.206Z,79.90
2018-07-16T23:48:26.163Z,80.00
2018-07-16T23:50:56.139Z,80.10
2018-07-16T23:53:26.074Z,80.10
2018-07-16T23:55:56.093Z,79.90
2018-07-16T23:58:26.056Z,79.80
